Time;durP1;ratioP1;P1;durP2;ratioP2;P2;SDS_P1;SDS_P2;PMS_P1;PMS_P2;Temp;Humidity;BMP_temperature;BMP_pressure;BME280_temperature;BME280_humidity;BME280_pressure;Samples;Min_cycle;Max_cycle;Signal;HPM_P1;HPM_P2
2021/05/09 00:01:33;;;;;;;1999.90;999.90;;;11.90;99.90;;;;;;5055507;28;20620;-45
2021/05/09 00:04:00;;;;;;;1999.90;999.90;;;11.90;99.90;;;;;;5055420;28;20260;-45
2021/05/09 00:06:27;;;;;;;1999.90;999.90;;;12.00;99.90;;;;;;5055696;28;20648;-45
2021/05/09 00:08:55;;;;;;;1999.90;999.90;;;11.90;99.90;;;;;;5055386;28;20252;-45
2021/05/09 00:11:22;;;;;;;1999.90;999.90;;;11.90;99.90;;;;;;5055355;28;20176;-44
2021/05/09 00:13:49;;;;;;;1999.90;999.90;;;11.80;99.90;;;;;;5055308;28;20649;-44
2021/05/09 00:16:16;;;;;;;1999.90;999.90;;;11.70;99.90;;;;;;5055376;28;20210;-44
2021/05/09 00:18:43;;;;;;;1999.90;999.90;;;11.70;99.90;;;;;;5054323;28;20196;-44
2021/05/09 00:21:10;;;;;;;1999.90;999.90;;;11.60;99.90;;;;;;5055128;28;20205;-45
2021/05/09 00:23:36;;;;;;;1999.90;999.90;;;11.50;99.90;;;;;;5055391;28;20181;-45
2021/05/09 00:26:03;;;;;;;1999.90;999.90;;;11.50;99.90;;;;;;5055070;28;20172;-46
2021/05/09 00:28:30;;;;;;;1999.90;999.90;;;11.60;99.90;;;;;;5054888;28;20231;-44
2021/05/09 00:30:57;;;;;;;1999.90;999.90;;;11.50;99.90;;;;;;5055061;28;20194;-46
2021/05/09 00:33:24;;;;;;;1999.90;999.90;;;11.40;99.90;;;;;;5054996;28;20227;-47
2021/05/09 00:35:50;;;;;;;1999.90;999.90;;;11.40;99.90;;;;;;5054916;28;20532;-47
2021/05/09 00:38:17;;;;;;;1999.90;999.90;;;11.30;99.90;;;;;;5054987;28;20176;-46
2021/05/09 00:40:44;;;;;;;1999.90;999.90;;;11.50;99.90;;;;;;5055013;28;20650;-47
2021/05/09 00:43:11;;;;;;;1999.90;999.90;;;11.50;99.90;;;;;;5054732;28;20165;-46
2021/05/09 00:45:38;;;;;;;1999.90;999.90;;;11.60;99.90;;;;;;5054656;28;20642;-46
2021/05/09 00:48:09;;;;;;;1999.90;999.90;;;11.60;99.90;;;;;;5054728;28;20185;-48
2021/05/09 00:50:35;;;;;;;1999.90;999.90;;;11.50;99.90;;;;;;5054626;28;20184;-46
2021/05/09 00:53:05;;;;;;;1999.90;999.90;;;11.50;99.90;;;;;;5054547;28;20628;-51
2021/05/09 00:55:33;;;;;;;1999.90;999.90;;;11.50;99.90;;;;;;5054579;28;20173;-48
2021/05/09 00:58:00;;;;;;;1999.90;999.90;;;11.50;99.90;;;;;;5054430;28;20170;-51
2021/05/09 01:00:27;;;;;;;1999.90;999.90;;;11.50;99.90;;;;;;5054262;28;20235;-48
2021/05/09 01:02:54;;;;;;;1999.90;999.90;;;11.50;99.90;;;;;;5054350;28;20215;-48
2021/05/09 01:05:20;;;;;;;1999.90;999.90;;;11.50;99.90;;;;;;5054424;28;20697;-52
2021/05/09 01:07:47;;;;;;;1999.90;999.90;;;11.50;99.90;;;;;;5054278;28;20162;-46
2021/05/09 01:10:14;;;;;;;1999.90;999.90;;;11.50;99.90;;;;;;5054078;28;20201;-46
2021/05/09 01:12:42;;;;;;;1999.90;999.90;;;11.50;99.90;;;;;;5054144;28;20176;-46
2021/05/09 01:15:10;;;;;;;1999.90;999.90;;;11.50;99.90;;;;;;5054024;28;20177;-46
2021/05/09 01:17:37;;;;;;;1999.90;999.90;;;11.50;99.90;;;;;;5054089;28;20178;-46
2021/05/09 01:20:15;;;;;;;1999.90;999.90;;;11.40;99.90;;;;;;5054009;28;20246;-45
2021/05/09 01:22:43;;;;;;;1999.90;999.90;;;11.40;99.90;;;;;;5054095;28;20643;-46
2021/05/09 01:25:11;;;;;;;1999.90;999.90;;;11.40;99.90;;;;;;5053996;28;20168;-45
2021/05/09 01:27:39;;;;;;;1999.90;999.90;;;11.30;99.90;;;;;;5053752;28;20216;-46
2021/05/09 01:30:07;;;;;;;1999.90;999.90;;;11.40;99.90;;;;;;5053779;28;20265;-46
2021/05/09 01:32:34;;;;;;;1999.90;999.90;;;11.30;99.90;;;;;;5053893;28;20169;-46
2021/05/09 01:35:01;;;;;;;1999.90;999.90;;;11.50;99.90;;;;;;5053832;28;20168;-46
2021/05/09 01:37:28;;;;;;;1999.90;999.90;;;11.50;99.90;;;;;;5053714;28;20161;-45
2021/05/09 01:39:54;;;;;;;1999.90;999.90;;;11.50;99.90;;;;;;5053672;28;20204;-46
2021/05/09 01:42:21;;;;;;;1999.90;999.90;;;11.40;99.90;;;;;;5053854;28;20183;-45
2021/05/09 01:44:52;;;;;;;1999.90;999.90;;;11.40;99.90;;;;;;5053946;28;20505;-45
2021/05/09 01:47:20;;;;;;;1999.90;999.90;;;11.40;99.90;;;;;;5053768;28;20161;-45
2021/05/09 01:49:47;;;;;;;1999.90;999.90;;;11.40;99.90;;;;;;5053532;28;20172;-45
2021/05/09 01:52:13;;;;;;;1999.90;999.90;;;11.40;99.90;;;;;;5053498;28;20197;-45
2021/05/09 01:54:40;;;;;;;1999.90;999.90;;;11.40;99.90;;;;;;5053467;28;20157;-46
2021/05/09 01:57:07;;;;;;;1999.90;999.90;;;11.40;99.90;;;;;;5053426;28;20598;-45
2021/05/09 01:59:34;;;;;;;1999.90;999.90;;;11.40;99.90;;;;;;5053451;28;20663;-46
2021/05/09 02:02:01;;;;;;;1999.90;999.90;;;11.40;99.90;;;;;;5053333;28;20165;-47
2021/05/09 02:04:28;;;;;;;1999.90;999.90;;;11.40;99.90;;;;;;5053237;28;20181;-45
2021/05/09 02:06:55;;;;;;;1999.90;999.90;;;11.40;99.90;;;;;;5053303;28;20638;-45
2021/05/09 02:09:21;;;;;;;1999.90;999.90;;;11.40;99.90;;;;;;5053362;28;20177;-45
2021/05/09 02:11:48;;;;;;;1999.90;999.90;;;11.30;99.90;;;;;;5053186;28;20252;-45
2021/05/09 02:14:15;;;;;;;1999.90;999.90;;;11.30;99.90;;;;;;5053179;28;20247;-45
2021/05/09 02:16:42;;;;;;;1999.90;999.90;;;11.20;99.90;;;;;;5053158;28;20587;-49
2021/05/09 02:19:09;;;;;;;1999.90;999.90;;;11.30;99.90;;;;;;5052959;28;20193;-46
2021/05/09 02:21:35;;;;;;;1999.90;999.90;;;11.20;99.90;;;;;;5053012;28;20169;-46
2021/05/09 02:24:02;;;;;;;1999.90;999.90;;;11.20;99.90;;;;;;5052974;28;20176;-46
2021/05/09 02:26:29;;;;;;;1999.90;999.90;;;11.20;99.90;;;;;;5053021;28;20162;-49
2021/05/09 02:28:56;;;;;;;1999.90;999.90;;;11.20;99.90;;;;;;5052955;28;20213;-45
2021/05/09 02:31:23;;;;;;;1999.90;999.90;;;11.20;99.90;;;;;;5053090;28;20195;-46
2021/05/09 02:33:50;;;;;;;1999.90;999.90;;;11.20;99.90;;;;;;5052888;28;20161;-46
2021/05/09 02:36:16;;;;;;;1999.90;999.90;;;11.20;99.90;;;;;;5052806;28;20183;-45
2021/05/09 02:38:43;;;;;;;1999.90;999.90;;;11.10;99.90;;;;;;5052748;28;20687;-49
2021/05/09 02:41:10;;;;;;;1999.90;999.90;;;11.10;99.90;;;;;;5052736;28;20173;-46
2021/05/09 02:43:37;;;;;;;1999.90;999.90;;;11.10;99.90;;;;;;5052411;28;20529;-50
2021/05/09 02:46:04;;;;;;;1999.90;999.90;;;11.10;99.90;;;;;;5052762;28;20224;-46
2021/05/09 02:48:31;;;;;;;1999.90;999.90;;;11.10;99.90;;;;;;5052614;28;20628;-46
2021/05/09 02:50:57;;;;;;;1999.90;999.90;;;11.10;99.90;;;;;;5052641;28;20219;-46
2021/05/09 02:53:24;;;;;;;1999.90;999.90;;;11.10;99.90;;;;;;5052770;28;20168;-47
2021/05/09 02:55:51;;;;;;;1999.90;999.90;;;11.10;99.90;;;;;;5052483;28;20169;-45
2021/05/09 02:58:18;;;;;;;1999.90;999.90;;;11.20;99.90;;;;;;5052226;28;20196;-47
2021/05/09 03:00:45;;;;;;;1999.90;999.90;;;11.20;99.90;;;;;;5052410;28;20173;-45
2021/05/09 03:03:11;;;;;;;1999.90;999.90;;;11.20;99.90;;;;;;5052486;28;20180;-46
2021/05/09 03:05:38;;;;;;;1999.90;999.90;;;11.20;99.90;;;;;;5052455;28;20573;-47
2021/05/09 03:08:05;;;;;;;1999.90;999.90;;;11.20;99.90;;;;;;5052413;28;20161;-46
2021/05/09 03:10:33;;;;;;;1999.90;999.90;;;11.10;99.90;;;;;;5052335;28;20624;-47
2021/05/09 03:13:00;;;;;;;1999.90;999.90;;;11.10;99.90;;;;;;5052316;28;20777;-46
2021/05/09 03:15:27;;;;;;;1999.90;999.90;;;11.10;99.90;;;;;;5052478;28;20168;-47
2021/05/09 03:17:54;;;;;;;1999.90;999.90;;;11.10;99.90;;;;;;5052312;28;20271;-48
2021/05/09 03:20:21;;;;;;;1999.90;999.90;;;11.10;99.90;;;;;;5052256;28;20251;-47
2021/05/09 03:22:48;;;;;;;1999.90;999.90;;;11.10;99.90;;;;;;5052211;28;20170;-46
2021/05/09 03:25:15;;;;;;;1999.90;999.90;;;11.10;99.90;;;;;;5052121;28;20166;-47
2021/05/09 03:27:42;;;;;;;1999.90;999.90;;;11.10;99.90;;;;;;5051978;28;20253;-46
2021/05/09 03:30:10;;;;;;;1999.90;999.90;;;11.00;99.90;;;;;;5052102;28;20173;-46
2021/05/09 03:32:36;;;;;;;1999.90;999.90;;;11.00;99.90;;;;;;5052369;28;20161;-47
2021/05/09 03:35:07;;;;;;;1999.90;999.90;;;11.00;99.90;;;;;;5052071;28;20679;-46
2021/05/09 03:37:34;;;;;;;1999.90;999.90;;;11.00;99.90;;;;;;5052117;28;20612;-47
2021/05/09 03:40:02;;;;;;;1999.90;999.90;;;11.00;99.90;;;;;;5052068;28;20207;-46
2021/05/09 03:42:29;;;;;;;1999.90;999.90;;;11.00;99.90;;;;;;5052080;28;20260;-46
2021/05/09 03:44:55;;;;;;;1999.90;999.90;;;11.00;99.90;;;;;;5051867;28;20219;-46
2021/05/09 03:47:26;;;;;;;1999.90;999.90;;;11.00;99.90;;;;;;5052108;28;20172;-48
2021/05/09 03:49:54;;;;;;;1999.90;999.90;;;11.00;99.90;;;;;;5052034;28;20161;-48
2021/05/09 03:52:21;;;;;;;1999.90;999.90;;;11.00;99.90;;;;;;5051934;28;20175;-46
2021/05/09 03:54:48;;;;;;;1999.90;999.90;;;11.00;99.90;;;;;;5053645;28;20604;-46
2021/05/09 03:57:15;;;;;;;1999.90;999.90;;;11.00;99.90;;;;;;5055508;28;20260;-48
2021/05/09 03:59:42;;;;;;;1999.90;999.90;;;11.00;99.90;;;;;;5055480;28;20247;-46
2021/05/09 04:02:09;;;;;;;1999.90;999.90;;;11.00;99.90;;;;;;5055400;28;20162;-47
2021/05/09 04:04:36;;;;;;;1999.90;999.90;;;10.90;99.90;;;;;;5055221;28;20185;-45
2021/05/09 04:07:03;;;;;;;1999.90;999.90;;;10.90;99.90;;;;;;5055680;28;20161;-47
2021/05/09 04:09:30;;;;;;;1999.90;999.90;;;10.90;99.90;;;;;;5055179;28;20295;-49
2021/05/09 04:11:57;;;;;;;1999.90;999.90;;;10.90;99.90;;;;;;5055080;28;20162;-48
2021/05/09 04:14:24;;;;;;;1999.90;999.90;;;10.90;99.90;;;;;;5055146;28;20184;-50
2021/05/09 04:16:51;;;;;;;1999.90;999.90;;;10.90;99.90;;;;;;5055151;28;20528;-46
2021/05/09 04:19:18;;;;;;;1999.90;999.90;;;10.80;99.90;;;;;;5054822;28;20212;-48
2021/05/09 04:21:45;;;;;;;1999.90;999.90;;;10.70;99.90;;;;;;5055185;28;20188;-46
2021/05/09 04:24:12;;;;;;;1999.90;999.90;;;10.80;99.90;;;;;;5055007;28;20169;-45
2021/05/09 04:26:38;;;;;;;1999.90;999.90;;;10.80;99.90;;;;;;5055037;28;20164;-46
2021/05/09 04:29:05;;;;;;;1999.90;999.90;;;10.70;99.90;;;;;;5054903;28;20243;-46
2021/05/09 04:31:32;;;;;;;1999.90;999.90;;;10.80;99.90;;;;;;5055293;28;20170;-46
2021/05/09 04:34:00;;;;;;;1999.90;999.90;;;10.70;99.90;;;;;;5054945;28;20170;-45
2021/05/09 04:36:26;;;;;;;1999.90;999.90;;;10.70;99.90;;;;;;5054655;28;20177;-47
2021/05/09 04:38:53;;;;;;;1999.90;999.90;;;10.70;99.90;;;;;;5054749;28;20196;-47
2021/05/09 04:41:20;;;;;;;1999.90;999.90;;;10.80;99.90;;;;;;5054768;28;20220;-47
2021/05/09 04:43:47;;;;;;;1999.90;999.90;;;10.70;99.90;;;;;;5054545;28;20166;-46
2021/05/09 04:46:14;;;;;;;1999.90;999.90;;;10.70;99.90;;;;;;5054683;28;20169;-46
2021/05/09 04:48:40;;;;;;;1999.90;999.90;;;10.60;99.90;;;;;;5054556;28;20244;-46
2021/05/09 04:51:07;;;;;;;1999.90;999.90;;;10.70;99.90;;;;;;5054605;28;20172;-46
2021/05/09 04:53:38;;;;;;;1999.90;999.90;;;10.60;99.90;;;;;;5054662;28;20188;-46
2021/05/09 04:56:07;;;;;;;1999.90;999.90;;;10.60;99.90;;;;;;5054500;28;20229;-46
2021/05/09 04:58:36;;;;;;;1999.90;999.90;;;10.70;99.90;;;;;;5054252;28;20536;-46
2021/05/09 05:01:04;;;;;;;1999.90;999.90;;;10.60;99.90;;;;;;5054473;28;20193;-46
2021/05/09 05:03:32;;;;;;;1999.90;999.90;;;10.60;99.90;;;;;;5054311;28;20181;-47
2021/05/09 05:06:00;;;;;;;1999.90;999.90;;;10.60;99.90;;;;;;5053812;28;20178;-46
2021/05/09 05:08:32;;;;;;;1999.90;999.90;;;10.60;99.90;;;;;;5054326;28;20169;-45
2021/05/09 05:11:00;;;;;;;1999.90;999.90;;;10.60;99.90;;;;;;5054218;28;20161;-47
2021/05/09 05:13:28;;;;;;;1999.90;999.90;;;10.70;99.90;;;;;;5054243;28;20177;-46
2021/05/09 05:15:56;;;;;;;1999.90;999.90;;;10.70;99.90;;;;;;5054144;28;20172;-46
2021/05/09 05:18:25;;;;;;;1999.90;999.90;;;10.80;99.90;;;;;;5053989;28;20184;-46
2021/05/09 05:20:53;;;;;;;1999.90;999.90;;;10.80;99.90;;;;;;5053941;28;20169;-46
2021/05/09 05:23:20;;;;;;;1999.90;999.90;;;10.80;99.90;;;;;;5053972;28;20192;-46
2021/05/09 05:25:46;;;;;;;1999.90;999.90;;;10.80;99.90;;;;;;5054083;28;20223;-48
2021/05/09 05:28:13;;;;;;;1999.90;999.90;;;10.80;99.90;;;;;;5053660;28;20221;-46
2021/05/09 05:30:40;;;;;;;1999.90;999.90;;;10.80;99.90;;;;;;5053982;28;20165;-46
2021/05/09 05:33:07;;;;;;;1999.90;999.90;;;10.70;99.90;;;;;;5053868;28;20169;-46
2021/05/09 05:35:34;;;;;;;1999.90;999.90;;;10.70;99.90;;;;;;5053812;28;20223;-45
2021/05/09 05:38:02;;;;;;;1999.90;999.90;;;10.70;99.90;;;;;;5053567;28;20542;-46
2021/05/09 05:40:29;;;;;;;1999.90;999.90;;;10.70;99.90;;;;;;5053538;28;20633;-46
2021/05/09 05:42:55;;;;;;;1999.90;999.90;;;10.70;99.90;;;;;;5053402;28;20189;-46
2021/05/09 05:45:22;;;;;;;1999.90;999.90;;;10.70;99.90;;;;;;5053613;28;20165;-47
2021/05/09 05:47:50;;;;;;;1999.90;999.90;;;10.70;99.90;;;;;;5053640;28;20238;-51
2021/05/09 05:50:17;;;;;;;1999.90;999.90;;;10.70;99.90;;;;;;5053314;28;20196;-47
2021/05/09 05:52:44;;;;;;;1999.90;999.90;;;10.70;99.90;;;;;;5053656;28;20701;-49
2021/05/09 05:55:11;;;;;;;1999.90;999.90;;;10.80;99.90;;;;;;5053753;28;20252;-47
2021/05/09 05:57:38;;;;;;;1999.90;999.90;;;10.80;99.90;;;;;;5053426;28;20643;-47
2021/05/09 06:00:05;;;;;;;1999.90;999.90;;;10.90;99.90;;;;;;5053276;28;20239;-46
2021/05/09 06:02:33;;;;;;;1999.90;999.90;;;10.90;99.90;;;;;;5053221;28;20534;-46
2021/05/09 06:04:59;;;;;;;1999.90;999.90;;;11.00;99.90;;;;;;5053295;28;20165;-46
2021/05/09 06:07:28;;;;;;;1999.90;999.90;;;10.90;99.90;;;;;;5053274;28;20263;-45
2021/05/09 06:09:55;;;;;;;1999.90;999.90;;;11.00;99.90;;;;;;5053176;28;20272;-45
2021/05/09 06:12:22;;;;;;;1999.90;999.90;;;11.00;99.90;;;;;;5051874;28;20173;-46
2021/05/09 06:14:49;;;;;;;1999.90;999.90;;;11.10;99.90;;;;;;5053040;28;20169;-46
2021/05/09 06:17:16;;;;;;;1999.90;999.90;;;11.10;99.90;;;;;;5052419;28;20180;-46
2021/05/09 06:19:43;;;;;;;1999.90;999.90;;;11.20;99.90;;;;;;5053050;28;20197;-46
2021/05/09 06:22:10;;;;;;;1999.90;999.90;;;11.20;99.90;;;;;;5052790;28;20177;-46
2021/05/09 06:24:36;;;;;;;1999.90;999.90;;;11.20;99.90;;;;;;5052858;28;20173;-47
2021/05/09 06:27:04;;;;;;;1999.90;999.90;;;11.20;99.90;;;;;;5052718;28;20172;-48
2021/05/09 06:29:31;;;;;;;1999.90;999.90;;;11.30;99.90;;;;;;5052906;28;20168;-46
2021/05/09 06:31:57;;;;;;;1999.90;999.90;;;11.30;99.90;;;;;;5052787;28;20161;-46
2021/05/09 06:34:24;;;;;;;1999.90;999.90;;;11.30;99.90;;;;;;5052803;28;20227;-46
2021/05/09 06:36:51;;;;;;;1999.90;999.90;;;11.30;99.90;;;;;;5052831;28;20192;-46
2021/05/09 06:39:25;;;;;;;1999.90;999.90;;;11.30;99.90;;;;;;5052386;28;20215;-46
2021/05/09 06:41:52;;;;;;;1999.90;999.90;;;11.30;99.90;;;;;;5052660;28;20215;-46
2021/05/09 06:44:19;;;;;;;1999.90;999.90;;;11.40;99.90;;;;;;5052659;28;20165;-48
2021/05/09 06:46:46;;;;;;;1999.90;999.90;;;11.50;99.90;;;;;;5052684;28;20169;-46
2021/05/09 06:49:14;;;;;;;1999.90;999.90;;;11.60;99.90;;;;;;5052480;28;20169;-46
2021/05/09 06:51:41;;;;;;;1999.90;999.90;;;11.70;99.90;;;;;;5052462;28;20223;-46
2021/05/09 06:54:08;;;;;;;1999.90;999.90;;;11.80;99.90;;;;;;5052493;28;20196;-47
2021/05/09 06:56:36;;;;;;;1999.90;999.90;;;11.90;99.90;;;;;;5052733;28;20195;-46
2021/05/09 06:59:03;;;;;;;1999.90;999.90;;;12.00;99.90;;;;;;5052260;28;20205;-45
2021/05/09 07:01:31;;;;;;;1999.90;999.90;;;12.10;99.90;;;;;;5052182;28;20183;-45
2021/05/09 07:03:58;;;;;;;1999.90;999.90;;;12.10;99.90;;;;;;5052237;28;20169;-46
2021/05/09 07:06:25;;;;;;;1999.90;999.90;;;12.30;99.90;;;;;;5052446;28;20252;-46
2021/05/09 07:08:52;;;;;;;1999.90;999.90;;;12.30;99.90;;;;;;5052740;28;20571;-47
2021/05/09 07:11:19;;;;;;;1999.90;999.90;;;12.40;99.90;;;;;;5052537;28;20169;-45
2021/05/09 07:13:46;;;;;;;1999.90;999.90;;;12.50;99.90;;;;;;5052607;28;20196;-44
2021/05/09 07:16:14;;;;;;;1999.90;999.90;;;12.70;99.90;;;;;;5052699;28;20184;-48
2021/05/09 07:18:41;;;;;;;1999.90;999.90;;;12.80;99.90;;;;;;5052413;28;20672;-44
2021/05/09 07:21:17;;;;;;;1999.90;999.90;;;12.90;99.90;;;;;;5051210;28;20215;-46
2021/05/09 07:23:48;;;;;;;1999.90;999.90;;;12.90;99.90;;;;;;5052553;28;20153;-48
2021/05/09 07:26:15;;;;;;;1999.90;999.90;;;13.10;99.90;;;;;;5052401;28;20557;-47
2021/05/09 07:28:42;;;;;;;1999.90;999.90;;;13.20;99.90;;;;;;5053937;28;20228;-50
2021/05/09 07:31:09;;;;;;;1999.90;999.90;;;13.20;99.90;;;;;;5056237;28;20165;-47
2021/05/09 07:33:36;;;;;;;1999.90;999.90;;;13.30;99.90;;;;;;5056189;28;20176;-49
2021/05/09 07:36:03;;;;;;;1999.90;999.90;;;13.40;99.90;;;;;;5056112;28;20515;-46
2021/05/09 07:38:31;;;;;;;1999.90;999.90;;;13.50;99.90;;;;;;5056002;28;20631;-46
2021/05/09 07:40:58;;;;;;;1999.90;999.90;;;13.70;99.90;;;;;;5055992;28;20177;-43
2021/05/09 07:43:25;;;;;;;1999.90;999.90;;;13.80;99.90;;;;;;5055966;28;20169;-44
2021/05/09 07:45:52;;;;;;;1999.90;999.90;;;13.90;99.90;;;;;;5055945;28;20185;-44
2021/05/09 07:48:18;;;;;;;1999.90;999.90;;;14.00;99.90;;;;;;5056139;28;20576;-44
2021/05/09 07:50:45;;;;;;;1999.90;999.90;;;14.20;99.90;;;;;;5055857;28;20169;-45
2021/05/09 07:53:16;;;;;;;1999.90;999.90;;;14.30;99.90;;;;;;5055829;28;20173;-44
2021/05/09 07:55:43;;;;;;;1999.90;999.90;;;14.50;99.90;;;;;;5055727;28;20188;-45
2021/05/09 07:58:20;;;;;;;1999.90;999.90;;;14.60;99.90;;;;;;5055167;28;20165;-44
2021/05/09 08:00:49;;;;;;;1999.90;999.90;;;14.70;99.90;;;;;;5055122;28;20267;-45
2021/05/09 08:03:16;;;;;;;1999.90;999.90;;;14.80;99.90;;;;;;5055189;28;20531;-45
2021/05/09 08:05:45;;;;;;;1999.90;999.90;;;14.90;99.90;;;;;;5055205;28;20174;-44
2021/05/09 08:08:12;;;;;;;1999.90;999.90;;;15.00;99.90;;;;;;5055019;28;20505;-46
2021/05/09 08:10:42;;;;;;;1999.90;999.90;;;15.10;99.90;;;;;;5055145;28;20177;-45
2021/05/09 08:13:11;;;;;;;1999.90;999.90;;;15.20;99.90;;;;;;5055292;28;20196;-44
2021/05/09 08:15:39;;;;;;;1999.90;999.90;;;15.40;99.90;;;;;;5055034;28;20177;-46
2021/05/09 08:18:06;;;;;;;1999.90;999.90;;;15.60;99.90;;;;;;5054880;28;20244;-46
2021/05/09 08:20:33;;;;;;;1999.90;999.90;;;15.70;99.90;;;;;;5055148;28;20296;-46
2021/05/09 08:23:00;;;;;;;1999.90;999.90;;;15.80;99.90;;;;;;5055058;28;20578;-44
2021/05/09 08:25:27;;;;;;;1999.90;999.90;;;15.90;99.90;;;;;;5054933;28;20200;-46
2021/05/09 08:27:54;;;;;;;1999.90;999.90;;;16.10;99.90;;;;;;5054940;28;20243;-43
2021/05/09 08:30:24;;;;;;;1999.90;999.90;;;16.30;99.90;;;;;;5055294;28;20174;-46
2021/05/09 08:32:52;;;;;;;1999.90;999.90;;;16.40;99.90;;;;;;5054994;28;20169;-47
2021/05/09 08:35:19;;;;;;;1999.90;999.90;;;16.50;99.90;;;;;;5054933;28;20252;-47
2021/05/09 08:37:46;;;;;;;1999.90;999.90;;;16.50;99.90;;;;;;5054906;28;20224;-46
2021/05/09 08:40:17;;;;;;;1999.90;999.90;;;16.70;99.90;;;;;;5053945;28;20207;-47
2021/05/09 08:42:47;;;;;;;1999.90;999.90;;;16.80;99.90;;;;;;5054878;28;20600;-47
2021/05/09 08:45:15;;;;;;;1999.90;999.90;;;16.90;99.90;;;;;;5054790;28;20177;-48
2021/05/09 08:47:43;;;;;;;1999.90;999.90;;;17.00;99.90;;;;;;5054816;28;20220;-50
2021/05/09 08:50:11;;;;;;;1999.90;999.90;;;17.10;99.90;;;;;;5055032;28;20223;-48
2021/05/09 08:52:39;;;;;;;1999.90;999.90;;;17.20;99.80;;;;;;5054660;28;20162;-50
2021/05/09 08:55:09;;;;;;;1999.90;999.90;;;17.30;99.50;;;;;;5054839;28;20185;-48
2021/05/09 08:57:36;;;;;;;1999.90;999.90;;;17.50;99.50;;;;;;5054472;28;20256;-46
2021/05/09 09:00:07;;;;;;;1999.90;999.90;;;17.50;99.60;;;;;;5054416;28;20201;-47
2021/05/09 09:02:34;;;;;;;1999.90;999.90;;;17.70;98.70;;;;;;5054431;28;20173;-48
2021/05/09 09:05:01;;;;;;;1999.90;999.90;;;17.90;98.30;;;;;;5053527;28;20169;-49
2021/05/09 09:07:48;;;;;;;1999.90;999.90;;;18.10;97.40;;;;;;5054563;28;20197;-47
2021/05/09 09:10:35;;;;;;;1999.90;999.90;;;18.20;97.50;;;;;;5054293;28;20184;-49
2021/05/09 09:13:04;;;;;;;1999.90;999.90;;;18.30;97.10;;;;;;5054229;28;20196;-50
2021/05/09 09:15:51;;;;;;;1999.90;999.90;;;18.40;96.30;;;;;;5053995;28;20709;-47
2021/05/09 09:18:44;;;;;;;1999.90;999.90;;;18.60;95.60;;;;;;5053893;28;20185;-46
2021/05/09 09:21:27;;;;;;;1999.90;999.90;;;18.80;95.50;;;;;;5052111;28;20200;-46
2021/05/09 09:23:54;;;;;;;1999.90;999.90;;;18.90;95.40;;;;;;5053853;28;20638;-46
2021/05/09 09:26:34;;;;;;;1999.90;999.90;;;19.20;94.70;;;;;;5053885;28;20188;-47
2021/05/09 09:29:22;;;;;;;1999.90;999.90;;;19.40;94.70;;;;;;5053900;28;20220;-46
2021/05/09 09:32:10;;;;;;;1999.90;999.90;;;19.60;92.40;;;;;;5053880;28;20573;-50
2021/05/09 09:34:51;;;;;;;1999.90;999.90;;;19.60;91.60;;;;;;5053919;28;20149;-47
2021/05/09 09:37:18;;;;;;;1999.90;999.90;;;19.40;92.60;;;;;;5053815;28;20157;-49
2021/05/09 09:39:57;;;;;;;1999.90;999.90;;;19.50;92.50;;;;;;5053704;28;20204;-46
2021/05/09 09:42:41;;;;;;;1999.90;999.90;;;19.70;91.90;;;;;;5053787;28;20177;-49
2021/05/09 09:45:25;;;;;;;1999.90;999.90;;;19.70;91.80;;;;;;5053714;28;20161;-51
2021/05/09 09:47:54;;;;;;;1999.90;999.90;;;19.80;91.80;;;;;;5053626;28;20218;-46
2021/05/09 09:50:42;;;;;;;1999.90;999.90;;;20.00;91.30;;;;;;5053530;28;20205;-46
2021/05/09 09:53:44;;;;;;;1999.90;999.90;;;20.20;90.90;;;;;;5053362;28;20259;-46
2021/05/09 09:56:29;;;;;;;1999.90;999.90;;;20.50;90.50;;;;;;5053430;28;20206;-49
2021/05/09 09:59:03;;;;;;;1999.90;999.90;;;20.70;87.10;;;;;;5053335;28;20216;-48
2021/05/09 10:01:32;;;;;;;1999.90;999.90;;;20.80;86.30;;;;;;5053247;28;20171;-48
2021/05/09 10:04:05;;;;;;;1999.90;999.90;;;20.90;87.10;;;;;;5053527;28;20199;-52
2021/05/09 10:06:32;;;;;;;1999.90;999.90;;;20.90;83.20;;;;;;5053296;28;20154;-46
2021/05/09 10:08:59;;;;;;;1999.90;999.90;;;21.10;82.60;;;;;;5052911;28;20177;-50
2021/05/09 10:11:28;;;;;;;1999.90;999.90;;;21.20;82.40;;;;;;5052814;28;20218;-50
2021/05/09 10:13:56;;;;;;;1999.90;999.90;;;21.30;80.90;;;;;;5052881;28;20169;-46
2021/05/09 10:16:25;;;;;;;1999.90;999.90;;;21.30;80.40;;;;;;5052745;28;20180;-45
2021/05/09 10:18:56;;;;;;;1999.90;999.90;;;21.40;78.50;;;;;;5052922;28;20205;-45
2021/05/09 10:21:31;;;;;;;1999.90;999.90;;;21.30;78.90;;;;;;5052970;28;20235;-46
2021/05/09 10:24:21;;;;;;;1999.90;999.90;;;21.00;80.10;;;;;;5052796;28;20173;-46
2021/05/09 10:27:05;;;;;;;1999.90;999.90;;;20.80;79.60;;;;;;5052687;28;20261;-46
2021/05/09 10:29:36;;;;;;;1999.90;999.90;;;20.40;81.70;;;;;;5052837;28;20252;-48
2021/05/09 10:32:23;;;;;;;1999.90;999.90;;;20.30;81.10;;;;;;5052692;28;20647;-46
2021/05/09 10:34:56;;;;;;;1999.90;999.90;;;20.50;80.50;;;;;;5046477;28;20275;-46
2021/05/09 10:37:38;;;;;;;1999.90;999.90;;;20.60;81.10;;;;;;5052562;28;20234;-46
2021/05/09 10:40:24;;;;;;;1999.90;999.90;;;21.00;81.40;;;;;;5052461;28;20201;-46
2021/05/09 10:43:04;;;;;;;1999.90;999.90;;;21.30;79.50;;;;;;5052572;28;20177;-47
2021/05/09 10:45:34;;;;;;;1999.90;999.90;;;21.60;80.60;;;;;;5052508;28;20172;-48
2021/05/09 10:50:51;;;;;;;1999.90;999.90;;;21.70;78.40;;;;;;5052392;28;20644;-48
2021/05/09 10:53:36;;;;;;;1999.90;999.90;;;21.90;76.90;;;;;;5052219;28;20200;-46
2021/05/09 10:56:28;;;;;;;1999.90;999.90;;;22.00;75.70;;;;;;5052861;28;20180;-45
2021/05/09 10:58:56;;;;;;;1999.90;999.90;;;21.90;76.50;;;;;;5052454;28;20690;-45
2021/05/09 11:01:32;;;;;;;1999.90;999.90;;;22.00;74.90;;;;;;5052392;28;20203;-45
2021/05/09 11:04:00;;;;;;;1999.90;999.90;;;22.00;72.20;;;;;;5054966;28;20161;-45
2021/05/09 11:06:27;;;;;;;1999.90;999.90;;;22.10;73.80;;;;;;5056552;28;20176;-45
2021/05/09 11:09:15;;;;;;;1999.90;999.90;;;22.20;72.30;;;;;;5056548;28;20213;-45
2021/05/09 11:11:42;;;;;;;1999.90;999.90;;;22.30;71.80;;;;;;5056528;28;20192;-45
2021/05/09 11:14:10;;;;;;;1999.90;999.90;;;22.40;72.30;;;;;;5056502;28;20163;-46
2021/05/09 11:16:44;;;;;;;1999.90;999.90;;;22.40;71.10;;;;;;5056381;28;20189;-45
2021/05/09 11:19:17;;;;;;;1999.90;999.90;;;22.50;67.90;;;;;;5056239;28;20196;-47
2021/05/09 11:21:45;;;;;;;1999.90;999.90;;;22.50;69.20;;;;;;5056163;28;20170;-45
2021/05/09 11:24:23;;;;;;;1999.90;999.90;;;22.60;66.30;;;;;;5056103;28;20180;-45
2021/05/09 11:26:58;;;;;;;1999.90;999.90;;;22.60;65.80;;;;;;5056279;28;20199;-44
2021/05/09 11:29:26;;;;;;;1999.90;999.90;;;22.70;65.60;;;;;;5056090;28;20502;-45
2021/05/09 11:32:09;;;;;;;1999.90;999.90;;;22.70;63.70;;;;;;5055988;28;20170;-45
2021/05/09 11:34:37;;;;;;;1999.90;999.90;;;22.60;64.10;;;;;;5056337;28;20180;-45
2021/05/09 11:37:04;;;;;;;1999.90;999.90;;;22.40;64.10;;;;;;5055824;28;20173;-45
2021/05/09 11:39:33;;;;;;;1999.90;999.90;;;22.50;67.20;;;;;;5055581;28;20200;-45
2021/05/09 11:42:11;;;;;;;1999.90;999.90;;;22.60;65.40;;;;;;5055839;28;20172;-46
2021/05/09 11:44:51;;;;;;;1999.90;999.90;;;22.70;63.90;;;;;;5056056;28;20517;-45
2021/05/09 11:47:22;;;;;;;1999.90;999.90;;;22.70;63.00;;;;;;5055735;28;20165;-46
2021/05/09 11:49:50;;;;;;;1999.90;999.90;;;22.90;62.80;;;;;;5055594;28;20648;-45
2021/05/09 11:52:21;;;;;;;1999.90;999.90;;;22.90;61.90;;;;;;5055531;28;20242;-45
2021/05/09 11:54:50;;;;;;;1999.90;999.90;;;22.90;60.00;;;;;;5055522;28;20165;-47
2021/05/09 11:57:20;;;;;;;1999.90;999.90;;;22.90;61.20;;;;;;5055510;28;20169;-45
2021/05/09 11:59:51;;;;;;;1999.90;999.90;;;22.90;63.00;;;;;;5055279;28;20303;-45
2021/05/09 12:02:23;;;;;;;1999.90;999.90;;;22.70;59.60;;;;;;5055407;28;20157;-48
2021/05/09 12:05:07;;;;;;;1999.90;999.90;;;22.90;56.50;;;;;;5055264;28;20177;-46
2021/05/09 12:07:43;;;;;;;1999.90;999.90;;;22.70;56.40;;;;;;5055241;28;20166;-45
2021/05/09 12:10:26;;;;;;;1999.90;999.90;;;22.80;62.70;;;;;;5055381;28;20252;-46
2021/05/09 12:13:05;;;;;;;1999.90;999.90;;;22.80;64.00;;;;;;5055096;28;20157;-48